createdAt,value
2022-10-06T00:00:26.700Z,11.30
2022-10-06T00:03:35.442Z,11.12
2022-10-06T00:06:43.544Z,11.32
2022-10-06T00:09:52.324Z,10.73
2022-10-06T00:13:01.465Z,10.93
2022-10-06T00:16:14.352Z,10.70
2022-10-06T00:19:25.207Z,10.25
2022-10-06T00:22:38.668Z,10.45
2022-10-06T00:25:46.182Z,10.57
2022-10-06T00:28:54.962Z,10.27
2022-10-06T00:32:00.078Z,10.82
2022-10-06T00:35:11.506Z,11.77
2022-10-06T00:38:18.127Z,12.52
2022-10-06T00:41:25.317Z,12.90
2022-10-06T00:44:34.447Z,12.57
2022-10-06T00:47:43.109Z,13.20
2022-10-06T00:50:53.487Z,13.98
2022-10-06T00:54:00.246Z,13.30
2022-10-06T00:57:06.844Z,13.73
2022-10-06T01:00:13.945Z,13.25
2022-10-06T01:03:25.335Z,14.07
2022-10-06T01:06:43.686Z,14.48
2022-10-06T01:09:52.543Z,14.85
2022-10-06T01:13:03.687Z,14.77
2022-10-06T01:16:21.239Z,15.13
2022-10-06T01:19:54.447Z,15.98
2022-10-06T01:23:08.086Z,15.82
2022-10-06T01:26:18.811Z,15.55
2022-10-06T01:29:26.926Z,15.70
2022-10-06T01:32:38.824Z,15.82
2022-10-06T01:35:53.259Z,16.12
2022-10-06T01:39:01.631Z,15.93
2022-10-06T01:42:10.399Z,15.32
2022-10-06T01:48:27.041Z,15.20
2022-10-06T01:51:35.374Z,15.60
2022-10-06T01:54:42.727Z,14.95
2022-10-06T01:57:50.673Z,14.60
2022-10-06T02:00:58.889Z,15.13
2022-10-06T02:04:06.948Z,15.07
2022-10-06T02:07:14.200Z,15.25
2022-10-06T02:10:22.342Z,14.80
2022-10-06T02:13:32.855Z,15.57
2022-10-06T02:16:38.927Z,15.57
2022-10-06T02:19:47.880Z,15.68
2022-10-06T02:22:56.483Z,15.02
2022-10-06T02:26:09.036Z,15.38
2022-10-06T02:29:17.668Z,14.75
2022-10-06T02:32:25.529Z,15.40
2022-10-06T02:35:35.224Z,15.38
2022-10-06T02:38:45.855Z,15.10
2022-10-06T02:41:52.678Z,15.18
2022-10-06T02:45:00.688Z,15.63
2022-10-06T02:48:10.743Z,15.45
2022-10-06T02:51:17.914Z,15.73
2022-10-06T02:54:25.597Z,15.68
2022-10-06T02:57:32.685Z,16.00
2022-10-06T03:00:39.905Z,15.60
2022-10-06T03:03:50.739Z,15.77
2022-10-06T03:06:59.037Z,15.88
2022-10-06T03:10:05.116Z,15.98
2022-10-06T03:13:14.017Z,16.70
2022-10-06T03:16:28.942Z,17.45
2022-10-06T03:19:39.022Z,16.05
2022-10-06T03:22:49.527Z,17.17
2022-10-06T03:25:59.451Z,16.37
2022-10-06T03:29:11.511Z,16.83
2022-10-06T03:32:19.100Z,17.23
2022-10-06T03:35:27.247Z,18.15
2022-10-06T03:41:45.455Z,17.65
2022-10-06T03:44:56.677Z,17.87
2022-10-06T03:48:05.686Z,17.75
2022-10-06T03:51:15.642Z,17.12
2022-10-06T03:54:24.062Z,17.50
2022-10-06T03:57:32.561Z,17.12
2022-10-06T04:00:38.381Z,16.92
2022-10-06T04:03:51.331Z,16.60
2022-10-06T04:06:58.242Z,16.25
2022-10-06T04:10:07.266Z,16.98
2022-10-06T04:13:16.646Z,17.17
2022-10-06T04:16:27.673Z,17.17
2022-10-06T04:19:33.616Z,16.70
2022-10-06T04:22:42.316Z,16.20
2022-10-06T04:25:52.555Z,17.20
2022-10-06T04:29:03.844Z,16.52
2022-10-06T04:32:11.697Z,16.20
2022-10-06T04:35:17.709Z,16.20
2022-10-06T04:38:25.230Z,14.95
2022-10-06T04:41:37.187Z,15.75
2022-10-06T04:44:45.061Z,15.68
2022-10-06T04:47:51.727Z,16.55
2022-10-06T04:51:05.779Z,16.12
2022-10-06T04:54:12.153Z,16.00
2022-10-06T04:57:18.146Z,16.12
2022-10-06T05:00:26.870Z,15.68
2022-10-06T05:03:33.288Z,15.48
2022-10-06T05:06:43.462Z,15.75
2022-10-06T05:09:49.460Z,16.85
2022-10-06T05:12:55.717Z,15.98
2022-10-06T05:16:03.373Z,15.25
2022-10-06T05:19:09.423Z,14.73
2022-10-06T05:22:15.348Z,15.10
2022-10-06T05:25:20.799Z,14.50
2022-10-06T05:28:28.167Z,14.87
2022-10-06T05:31:35.916Z,14.93
2022-10-06T05:34:40.438Z,15.40
2022-10-06T05:37:45.307Z,15.63
2022-10-06T05:40:50.091Z,15.98
2022-10-06T05:43:53.903Z,15.05
2022-10-06T05:46:57.265Z,14.80
2022-10-06T05:50:02.424Z,14.13
2022-10-06T05:53:05.836Z,13.75
2022-10-06T05:56:12.415Z,13.52
2022-10-06T05:59:16.570Z,13.48
2022-10-06T06:02:20.970Z,13.32
2022-10-06T06:05:24.615Z,13.00
2022-10-06T06:08:29.199Z,13.90
2022-10-06T06:11:35.581Z,12.82
2022-10-06T06:14:57.760Z,13.05
2022-10-06T06:18:01.735Z,14.00
2022-10-06T06:21:08.897Z,13.02
2022-10-06T06:24:12.675Z,13.38
2022-10-06T06:27:16.387Z,13.65
2022-10-06T06:30:21.561Z,13.88
2022-10-06T06:33:25.065Z,13.80
2022-10-06T06:36:37.152Z,13.88
2022-10-06T06:39:41.272Z,13.75
2022-10-06T06:42:50.289Z,12.70
2022-10-06T06:46:04.705Z,13.10
2022-10-06T06:49:12.608Z,13.10
2022-10-06T06:52:17.889Z,13.40
2022-10-06T06:55:24.703Z,13.13
2022-10-06T06:58:30.779Z,17.95
2022-10-06T07:01:35.141Z,12.68
2022-10-06T07:04:39.195Z,12.75
2022-10-06T07:07:46.128Z,13.27
2022-10-06T07:10:52.046Z,12.70
2022-10-06T07:14:01.690Z,13.10
2022-10-06T07:17:23.751Z,13.15
2022-10-06T07:21:00.735Z,13.52
2022-10-06T07:24:23.037Z,13.55
2022-10-06T07:27:26.479Z,12.90
2022-10-06T07:30:30.053Z,13.07
2022-10-06T07:33:34.208Z,11.80
2022-10-06T07:36:37.582Z,11.98
2022-10-06T07:39:41.808Z,10.38
2022-10-06T07:42:48.754Z,9.65
2022-10-06T07:45:52.964Z,9.88
2022-10-06T07:48:57.597Z,10.02
2022-10-06T07:52:03.107Z,9.45
2022-10-06T07:55:07.867Z,9.23
2022-10-06T07:58:16.123Z,9.07
2022-10-06T08:01:20.899Z,9.48
2022-10-06T08:04:24.438Z,9.35
2022-10-06T08:07:28.282Z,9.00
2022-10-06T08:10:32.495Z,9.15
2022-10-06T08:13:37.445Z,9.13
2022-10-06T08:16:41.841Z,9.27
2022-10-06T08:19:45.981Z,9.55
2022-10-06T08:22:49.671Z,8.60
2022-10-06T08:25:54.418Z,9.18
2022-10-06T08:29:03.287Z,8.60
2022-10-06T08:32:06.910Z,9.50
2022-10-06T08:35:12.082Z,9.15
2022-10-06T08:38:16.442Z,9.95
2022-10-06T08:41:39.951Z,10.02
2022-10-06T08:44:47.870Z,10.55
2022-10-06T08:48:02.584Z,10.48
2022-10-06T08:51:28.267Z,11.80
2022-10-06T08:55:02.173Z,11.88
2022-10-06T08:58:29.602Z,12.32
2022-10-06T09:01:46.139Z,12.68
2022-10-06T09:04:51.385Z,12.55
2022-10-06T09:08:07.500Z,13.68
2022-10-06T09:11:26.018Z,13.10
2022-10-06T09:14:48.457Z,13.52
2022-10-06T09:18:02.473Z,13.45
2022-10-06T09:21:16.187Z,13.07
2022-10-06T09:24:47.463Z,11.73
2022-10-06T09:27:56.386Z,12.40
2022-10-06T09:31:03.671Z,10.90
2022-10-06T09:34:41.318Z,12.93
2022-10-06T09:38:09.011Z,12.35
2022-10-06T09:41:14.659Z,11.05
2022-10-06T09:44:28.026Z,12.40
2022-10-06T09:47:41.480Z,11.82
2022-10-06T09:50:45.998Z,11.77
2022-10-06T09:54:12.495Z,12.40
2022-10-06T09:57:26.425Z,12.23
2022-10-06T10:00:47.759Z,12.35
2022-10-06T10:07:30.465Z,10.20
2022-10-06T10:10:37.956Z,10.70
2022-10-06T10:13:44.501Z,10.18
2022-10-06T10:16:53.220Z,11.07
2022-10-06T10:19:58.997Z,11.20
2022-10-06T10:23:07.980Z,11.35
2022-10-06T10:26:30.872Z,11.12
2022-10-06T10:29:45.893Z,12.63
2022-10-06T10:32:52.797Z,11.75
2022-10-06T10:35:58.758Z,13.55
2022-10-06T10:39:12.607Z,13.68
2022-10-06T10:42:38.732Z,12.93
2022-10-06T10:45:47.141Z,12.32
2022-10-06T10:48:59.971Z,10.90
2022-10-06T10:52:27.908Z,8.88
2022-10-06T10:55:42.046Z,8.73
2022-10-06T10:58:50.101Z,8.85
2022-10-06T11:02:20.023Z,7.65
2022-10-06T11:05:58.500Z,7.47
2022-10-06T11:09:10.372Z,6.97
2022-10-06T11:12:47.328Z,7.05
2022-10-06T11:16:17.064Z,6.03
2022-10-06T11:19:28.831Z,6.00
2022-10-06T11:22:51.210Z,6.37
2022-10-06T11:25:54.691Z,6.47
2022-10-06T11:29:08.000Z,6.32
2022-10-06T11:32:17.685Z,6.32
2022-10-06T11:35:26.320Z,6.37
2022-10-06T11:38:42.510Z,6.45
2022-10-06T11:42:12.755Z,6.37
2022-10-06T11:45:17.169Z,5.97
2022-10-06T11:48:23.478Z,6.30
2022-10-06T11:51:29.404Z,6.95
2022-10-06T11:54:54.079Z,6.15
2022-10-06T12:01:51.004Z,6.90
2022-10-06T12:08:55.702Z,6.65
2022-10-06T12:12:19.856Z,6.00
2022-10-06T12:17:06.147Z,6.45
2022-10-06T12:19:34.476Z,6.55
2022-10-06T12:22:49.674Z,6.00
2022-10-06T12:26:07.938Z,6.60
2022-10-06T12:29:20.698Z,6.28
2022-10-06T12:32:41.151Z,6.12
2022-10-06T12:35:46.205Z,6.68
2022-10-06T12:39:05.766Z,6.45
2022-10-06T12:42:21.783Z,6.28
2022-10-06T12:45:26.146Z,6.97
2022-10-06T12:48:51.651Z,6.65
2022-10-06T12:51:58.984Z,6.75
2022-10-06T12:55:20.332Z,5.80
2022-10-06T12:58:31.676Z,7.18
2022-10-06T13:01:36.966Z,7.55
2022-10-06T13:04:45.230Z,6.55
2022-10-06T13:07:57.749Z,5.87
2022-10-06T13:11:24.970Z,6.18
2022-10-06T13:14:29.835Z,6.55
2022-10-06T13:17:36.090Z,5.80
2022-10-06T13:20:51.311Z,5.57
2022-10-06T13:23:57.525Z,6.22
2022-10-06T13:27:03.981Z,6.12
2022-10-06T13:30:38.802Z,6.60
2022-10-06T13:33:47.069Z,6.03
2022-10-06T13:36:53.904Z,6.05
2022-10-06T13:39:57.824Z,5.80
2022-10-06T13:43:03.161Z,6.37
2022-10-06T13:46:13.389Z,5.68
2022-10-06T13:49:23.699Z,5.28
2022-10-06T13:55:51.193Z,5.45
2022-10-06T13:58:55.804Z,5.20
2022-10-06T14:02:24.646Z,4.50
2022-10-06T14:05:38.871Z,4.60
2022-10-06T14:08:49.695Z,5.30
2022-10-06T14:12:18.542Z,5.18
2022-10-06T14:15:27.566Z,6.20
2022-10-06T14:18:45.848Z,5.87
2022-10-06T14:21:49.225Z,4.95
2022-10-06T14:24:54.243Z,5.72
2022-10-06T14:27:57.137Z,5.72
2022-10-06T14:31:00.467Z,5.28
2022-10-06T14:34:04.969Z,5.50
2022-10-06T14:37:15.614Z,5.10
2022-10-06T14:43:26.092Z,6.12
2022-10-06T14:46:30.501Z,5.10
2022-10-06T14:49:37.814Z,5.80
2022-10-06T14:52:43.720Z,5.55
2022-10-06T14:55:48.984Z,5.60
2022-10-06T14:58:53.675Z,5.55
2022-10-06T15:01:58.097Z,5.62
2022-10-06T15:05:02.695Z,6.65
2022-10-06T15:08:12.781Z,4.57
2022-10-06T15:11:17.336Z,4.80
2022-10-06T15:14:23.654Z,5.00
2022-10-06T15:17:28.628Z,4.00
2022-10-06T15:20:36.809Z,3.75
2022-10-06T15:23:41.654Z,3.80
2022-10-06T15:27:06.085Z,3.33
2022-10-06T15:30:12.602Z,3.47
2022-10-06T15:33:17.922Z,3.95
2022-10-06T15:36:25.035Z,3.75
2022-10-06T15:39:33.085Z,3.62
2022-10-06T15:42:38.319Z,4.03
2022-10-06T15:45:54.252Z,4.55
2022-10-06T15:49:01.626Z,3.95
2022-10-06T15:52:08.324Z,4.03
2022-10-06T15:55:14.203Z,4.20
2022-10-06T15:58:19.734Z,4.65
2022-10-06T16:01:44.471Z,4.45
2022-10-06T16:05:16.768Z,4.87
2022-10-06T16:08:22.850Z,5.00
2022-10-06T16:11:31.264Z,5.57
2022-10-06T16:14:38.747Z,5.47
2022-10-06T16:17:45.843Z,5.00
2022-10-06T16:20:58.133Z,5.22
2022-10-06T16:24:04.028Z,5.18
2022-10-06T16:27:12.910Z,5.97
2022-10-06T16:30:18.026Z,4.90
2022-10-06T16:33:24.670Z,4.97
2022-10-06T16:36:31.731Z,4.95
2022-10-06T16:39:38.524Z,5.62
2022-10-06T16:42:47.028Z,5.32
2022-10-06T16:46:02.316Z,6.05
2022-10-06T16:49:10.538Z,5.55
2022-10-06T16:52:17.141Z,6.18
2022-10-06T16:55:23.343Z,5.87
2022-10-06T16:58:35.949Z,5.53
2022-10-06T17:01:43.230Z,5.82
2022-10-06T17:04:50.283Z,5.60
2022-10-06T17:07:59.177Z,5.78
2022-10-06T17:11:15.019Z,6.07
2022-10-06T17:14:25.021Z,6.25
2022-10-06T17:17:33.118Z,6.28
2022-10-06T17:20:44.264Z,6.57
2022-10-06T17:23:59.533Z,7.20
2022-10-06T17:27:05.850Z,7.53
2022-10-06T17:30:13.889Z,7.28
2022-10-06T17:33:20.608Z,6.87
2022-10-06T17:36:28.201Z,6.62
2022-10-06T17:39:34.575Z,6.78
2022-10-06T17:42:42.275Z,6.85
2022-10-06T17:45:53.531Z,6.87
2022-10-06T17:49:06.264Z,6.60
2022-10-06T17:52:14.600Z,7.18
2022-10-06T17:55:21.080Z,7.15
2022-10-06T17:58:31.249Z,7.75
2022-10-06T18:01:37.992Z,7.82
2022-10-06T18:04:45.518Z,7.20
2022-10-06T18:07:52.108Z,7.53
2022-10-06T18:11:17.860Z,7.28
2022-10-06T18:14:27.239Z,8.13
2022-10-06T18:17:34.502Z,7.87
2022-10-06T18:20:43.294Z,8.23
2022-10-06T18:23:50.745Z,8.18
2022-10-06T18:26:59.926Z,8.52
2022-10-06T18:30:07.790Z,8.52
2022-10-06T18:35:30.040Z,8.15
2022-10-06T18:36:42.767Z,7.90
2022-10-06T18:39:50.399Z,8.63
2022-10-06T18:42:59.065Z,8.70
2022-10-06T18:46:29.608Z,8.95
2022-10-06T18:49:39.212Z,8.23
2022-10-06T18:52:46.266Z,8.38
2022-10-06T18:55:53.513Z,9.10
2022-10-06T18:59:11.188Z,8.82
2022-10-06T19:02:19.352Z,9.35
2022-10-06T19:05:27.016Z,8.32
2022-10-06T19:08:36.073Z,8.70
2022-10-06T19:11:49.634Z,9.02
2022-10-06T19:14:55.970Z,8.45
2022-10-06T19:18:03.078Z,9.20
2022-10-06T19:21:09.865Z,9.25
2022-10-06T19:24:19.225Z,8.60
2022-10-06T19:27:26.946Z,9.45
2022-10-06T19:30:33.831Z,9.15
2022-10-06T19:33:42.626Z,9.50
2022-10-06T19:36:54.015Z,9.85
2022-10-06T19:40:00.868Z,9.63
2022-10-06T19:43:08.707Z,10.05
2022-10-06T19:46:15.902Z,10.30
2022-10-06T19:49:21.101Z,9.90
2022-10-06T19:52:27.586Z,10.80
2022-10-06T19:55:33.873Z,10.27
2022-10-06T19:58:44.477Z,10.13
2022-10-06T20:01:52.118Z,10.50
2022-10-06T20:04:57.887Z,10.95
2022-10-06T20:08:06.557Z,10.60
2022-10-06T20:11:17.793Z,10.63
2022-10-06T20:14:25.257Z,10.75
2022-10-06T20:17:31.828Z,10.40
2022-10-06T20:20:38.200Z,10.80
2022-10-06T20:23:56.092Z,10.23
2022-10-06T20:27:01.682Z,11.68
2022-10-06T20:30:08.452Z,10.95
2022-10-06T20:33:19.264Z,11.73
2022-10-06T20:36:29.762Z,11.60
2022-10-06T20:39:57.582Z,11.57
2022-10-06T20:43:05.214Z,11.75
2022-10-06T20:46:08.833Z,12.60
2022-10-06T20:49:17.901Z,12.27
2022-10-06T20:52:25.421Z,12.80
2022-10-06T20:55:31.963Z,12.82
2022-10-06T20:58:37.144Z,12.27
2022-10-06T21:01:45.213Z,12.88
2022-10-06T21:04:52.498Z,13.55
2022-10-06T21:07:56.325Z,13.68
2022-10-06T21:11:04.179Z,15.10
2022-10-06T21:14:12.367Z,14.27
2022-10-06T21:17:17.568Z,15.15
2022-10-06T21:20:22.831Z,14.77
2022-10-06T21:23:31.421Z,14.13
2022-10-06T21:26:39.400Z,14.18
2022-10-06T21:29:45.340Z,14.65
2022-10-06T21:32:53.542Z,14.40
2022-10-06T21:36:05.836Z,14.77
2022-10-06T21:39:13.778Z,14.75
2022-10-06T21:42:18.867Z,13.98
2022-10-06T21:45:30.846Z,14.32
2022-10-06T21:48:40.972Z,14.50
2022-10-06T21:51:51.871Z,14.70
2022-10-06T21:54:59.957Z,15.88
2022-10-06T21:58:06.905Z,15.32
2022-10-06T22:01:15.331Z,15.20
2022-10-06T22:04:22.633Z,14.23
2022-10-06T22:13:56.082Z,14.18
2022-10-06T22:17:05.649Z,14.20
2022-10-06T22:20:13.372Z,14.20
2022-10-06T22:23:23.940Z,14.20
2022-10-06T22:26:34.437Z,14.40
2022-10-06T22:29:43.704Z,14.45
2022-10-06T22:32:54.860Z,15.63
2022-10-06T22:36:03.552Z,14.75
2022-10-06T22:39:12.108Z,15.43
2022-10-06T22:42:19.594Z,14.70
2022-10-06T22:45:30.018Z,14.77
2022-10-06T22:48:39.431Z,14.63
2022-10-06T22:51:47.041Z,14.65
2022-10-06T22:54:57.906Z,14.10
2022-10-06T22:58:04.104Z,14.70
2022-10-06T23:01:14.487Z,14.55
2022-10-06T23:04:21.654Z,14.20
